Time;durP1;ratioP1;P1;durP2;ratioP2;P2;SDS_P1;SDS_P2;PMS_P1;PMS_P2;Temp;Humidity;BMP_temperature;BMP_pressure;BME280_temperature;BME280_humidity;BME280_pressure;Samples;Min_cycle;Max_cycle;Signal;HPM_P1;HPM_P2
2022/04/29 00:00:48;;;;;;;21.02;9.93;;;;;;;;;;5070386;28;20756;-71
2022/04/29 00:03:14;;;;;;;25.45;9.57;;;;;;;;;;5070957;28;20087;-72
2022/04/29 00:05:40;;;;;;;17.83;9.43;;;;;;;;;;5072136;28;20051;-71
2022/04/29 00:08:06;;;;;;;22.60;10.18;;;;;;;;;;5069844;28;20062;-71
2022/04/29 00:10:32;;;;;;;23.90;9.43;;;;;;;;;;5070387;28;20060;-71
2022/04/29 00:12:57;;;;;;;32.83;9.48;;;;;;;;;;5070871;28;20543;-72
2022/04/29 00:15:22;;;;;;;22.75;8.90;;;;;;;;;;5069776;28;20432;-72
2022/04/29 00:17:47;;;;;;;24.05;9.77;;;;;;;;;;5070098;28;20017;-71
2022/04/29 00:20:13;;;;;;;18.27;9.05;;;;;;;;;;5070082;28;20391;-72
2022/04/29 00:22:39;;;;;;;19.27;10.02;;;;;;;;;;5071495;28;20107;-72
2022/04/29 00:25:04;;;;;;;24.83;10.43;;;;;;;;;;5071096;28;20391;-68
2022/04/29 00:27:30;;;;;;;21.58;10.20;;;;;;;;;;5068751;28;20039;-66
2022/04/29 00:29:55;;;;;;;24.00;10.50;;;;;;;;;;5070739;28;20021;-67
2022/04/29 00:32:22;;;;;;;19.70;9.57;;;;;;;;;;5070170;28;20019;-70
2022/04/29 00:34:47;;;;;;;29.67;11.15;;;;;;;;;;5070886;28;20380;-66
2022/04/29 00:37:12;;;;;;;26.13;9.85;;;;;;;;;;5069944;28;20023;-67
2022/04/29 00:39:37;;;;;;;21.80;10.50;;;;;;;;;;5069833;28;20033;-69
2022/04/29 00:42:16;;;;;;;28.92;10.63;;;;;;;;;;5070343;28;20028;-69
2022/04/29 00:44:42;;;;;;;27.45;9.43;;;;;;;;;;5065384;28;20036;-69
2022/04/29 00:47:08;;;;;;;29.38;11.52;;;;;;;;;;5068679;28;20021;-69
2022/04/29 00:49:33;;;;;;;20.25;9.45;;;;;;;;;;5068517;28;20082;-71
2022/04/29 00:51:59;;;;;;;26.27;10.60;;;;;;;;;;5071100;28;20466;-69
2022/04/29 00:54:26;;;;;;;26.27;10.35;;;;;;;;;;5068917;28;20187;-69
2022/04/29 00:56:52;;;;;;;20.65;9.82;;;;;;;;;;5069361;28;20031;-69
2022/04/29 00:59:40;;;;;;;23.02;9.63;;;;;;;;;;5071032;28;20091;-69
2022/04/29 01:02:07;;;;;;;25.48;10.07;;;;;;;;;;5069747;28;20067;-71
2022/04/29 01:04:35;;;;;;;19.80;10.40;;;;;;;;;;5068919;28;20024;-69
2022/04/29 01:07:02;;;;;;;26.77;11.32;;;;;;;;;;5067071;28;20587;-69
2022/04/29 01:09:27;;;;;;;23.15;12.52;;;;;;;;;;5068179;28;20025;-72
2022/04/29 01:11:52;;;;;;;25.33;10.13;;;;;;;;;;5070353;28;20460;-69
2022/04/29 01:14:18;;;;;;;27.42;10.38;;;;;;;;;;5069251;28;20070;-72
2022/04/29 01:16:43;;;;;;;23.25;10.35;;;;;;;;;;5069368;28;20016;-69
2022/04/29 01:19:08;;;;;;;19.45;10.77;;;;;;;;;;5068870;28;20028;-70
2022/04/29 01:21:34;;;;;;;29.13;10.43;;;;;;;;;;5068011;28;20064;-69
2022/04/29 01:23:59;;;;;;;24.23;10.65;;;;;;;;;;5070680;28;20048;-69
2022/04/29 01:26:24;;;;;;;24.05;11.60;;;;;;;;;;5065889;28;20021;-71
2022/04/29 01:28:50;;;;;;;27.80;11.83;;;;;;;;;;5068892;28;20036;-69
2022/04/29 01:31:16;;;;;;;20.08;10.55;;;;;;;;;;5069220;28;20302;-68
2022/04/29 01:33:42;;;;;;;26.57;10.33;;;;;;;;;;5067817;28;20048;-69
2022/04/29 01:36:07;;;;;;;24.52;11.13;;;;;;;;;;5069180;28;20338;-72
2022/04/29 01:38:33;;;;;;;21.75;10.98;;;;;;;;;;5055485;28;20120;-69
2022/04/29 01:40:58;;;;;;;23.00;10.37;;;;;;;;;;5068901;28;20458;-69
2022/04/29 01:43:23;;;;;;;25.52;10.40;;;;;;;;;;5067447;28;20723;-69
2022/04/29 01:45:49;;;;;;;23.40;10.83;;;;;;;;;;5070421;28;20044;-71
2022/04/29 01:48:14;;;;;;;25.10;11.57;;;;;;;;;;5067575;28;20277;-69
2022/04/29 01:50:39;;;;;;;28.27;12.03;;;;;;;;;;5068868;28;20314;-69
2022/04/29 01:53:04;;;;;;;27.17;11.40;;;;;;;;;;5067660;28;20263;-70
2022/04/29 01:55:29;;;;;;;28.58;11.57;;;;;;;;;;5069163;28;20678;-71
2022/04/29 01:57:56;;;;;;;22.75;11.48;;;;;;;;;;5068343;28;20021;-72
2022/04/29 02:00:22;;;;;;;25.35;11.25;;;;;;;;;;5067761;28;20073;-71
2022/04/29 02:02:47;;;;;;;28.27;11.10;;;;;;;;;;5068519;28;20419;-71
2022/04/29 02:05:12;;;;;;;22.25;11.30;;;;;;;;;;5068410;28;20020;-71
2022/04/29 02:07:37;;;;;;;28.10;11.87;;;;;;;;;;5068438;28;20126;-69
2022/04/29 02:10:03;;;;;;;28.63;11.90;;;;;;;;;;5067200;28;20293;-71
2022/04/29 02:12:28;;;;;;;29.42;11.30;;;;;;;;;;5068825;28;20286;-70
2022/04/29 02:14:53;;;;;;;29.77;12.03;;;;;;;;;;5068250;28;20020;-71
2022/04/29 02:17:18;;;;;;;31.02;10.73;;;;;;;;;;5067580;28;20762;-70
2022/04/29 02:19:44;;;;;;;28.02;11.50;;;;;;;;;;5070058;28;20512;-71
2022/04/29 02:22:09;;;;;;;22.37;12.27;;;;;;;;;;5067012;28;20176;-71
2022/04/29 02:24:35;;;;;;;21.70;11.50;;;;;;;;;;5068522;28;20296;-69
2022/04/29 02:27:02;;;;;;;22.15;11.45;;;;;;;;;;5068584;28;20036;-71
2022/04/29 02:29:28;;;;;;;29.40;11.60;;;;;;;;;;5067542;28;20105;-71
2022/04/29 02:31:53;;;;;;;22.10;11.45;;;;;;;;;;5067447;28;20486;-71
2022/04/29 02:34:18;;;;;;;26.27;11.95;;;;;;;;;;5069762;28;20384;-71
2022/04/29 02:36:44;;;;;;;26.83;12.27;;;;;;;;;;5068620;28;20017;-71
2022/04/29 02:39:09;;;;;;;29.23;11.65;;;;;;;;;;5068449;28;20056;-71
2022/04/29 02:41:35;;;;;;;30.73;11.65;;;;;;;;;;5067195;28;20032;-71
2022/04/29 02:44:00;;;;;;;23.13;11.88;;;;;;;;;;5068017;28;20036;-71
2022/04/29 02:46:25;;;;;;;25.73;11.63;;;;;;;;;;5068463;28;20020;-69
2022/04/29 02:48:51;;;;;;;28.42;11.18;;;;;;;;;;5067233;28;20346;-70
2022/04/29 02:51:16;;;;;;;28.88;10.63;;;;;;;;;;5069443;28;20382;-71
2022/04/29 02:53:42;;;;;;;30.98;10.57;;;;;;;;;;5066917;28;20055;-70
2022/04/29 02:56:07;;;;;;;29.83;11.63;;;;;;;;;;5066951;28;20492;-71
2022/04/29 02:58:32;;;;;;;24.00;11.15;;;;;;;;;;5050010;28;20040;-69
2022/04/29 03:00:57;;;;;;;24.02;11.55;;;;;;;;;;5066966;28;20028;-70
2022/04/29 03:03:23;;;;;;;26.25;11.43;;;;;;;;;;5070027;28;20103;-69
2022/04/29 03:05:48;;;;;;;24.45;10.80;;;;;;;;;;5067830;28;20050;-69
2022/04/29 03:08:13;;;;;;;26.77;11.57;;;;;;;;;;5068083;28;20090;-69
2022/04/29 03:10:38;;;;;;;26.48;11.25;;;;;;;;;;5067461;28;20032;-69
2022/04/29 03:13:04;;;;;;;24.20;12.27;;;;;;;;;;5068845;28;20016;-69
2022/04/29 03:15:29;;;;;;;26.83;11.95;;;;;;;;;;5067887;28;20017;-70
2022/04/29 03:20:39;;;;;;;25.35;10.15;;;;;;;;;;5067125;28;20270;-69
2022/04/29 03:23:05;;;;;;;28.83;12.50;;;;;;;;;;5067793;28;20029;-70
2022/04/29 03:25:30;;;;;;;30.35;13.40;;;;;;;;;;5068247;28;20024;-69
2022/04/29 03:27:55;;;;;;;24.55;11.40;;;;;;;;;;5066212;28;20035;-69
2022/04/29 03:30:20;;;;;;;23.97;10.97;;;;;;;;;;5071277;28;20384;-69
2022/04/29 03:32:52;;;;;;;30.08;12.10;;;;;;;;;;5072061;28;20283;-68
2022/04/29 03:35:18;;;;;;;28.40;13.07;;;;;;;;;;5072391;28;20024;-69
2022/04/29 03:37:43;;;;;;;27.95;11.68;;;;;;;;;;5070541;28;20019;-71
2022/04/29 03:40:09;;;;;;;25.23;12.30;;;;;;;;;;5072186;28;20032;-71
2022/04/29 03:42:34;;;;;;;22.27;11.77;;;;;;;;;;5072891;28;20781;-71
2022/04/29 03:44:59;;;;;;;23.37;11.47;;;;;;;;;;5071132;28;20110;-69
2022/04/29 03:47:24;;;;;;;26.93;11.63;;;;;;;;;;5071351;28;20293;-71
2022/04/29 03:49:49;;;;;;;23.25;11.70;;;;;;;;;;5067611;28;20325;-70
2022/04/29 03:52:15;;;;;;;24.00;11.73;;;;;;;;;;5071332;28;20032;-71
2022/04/29 03:54:40;;;;;;;25.67;13.20;;;;;;;;;;5070250;28;20500;-71
2022/04/29 03:57:06;;;;;;;25.87;11.87;;;;;;;;;;5072191;28;20031;-71
2022/04/29 03:59:31;;;;;;;24.98;12.20;;;;;;;;;;5069891;28;20611;-71
2022/04/29 04:01:56;;;;;;;24.77;11.63;;;;;;;;;;5070925;28;20025;-71
2022/04/29 04:04:21;;;;;;;23.93;11.07;;;;;;;;;;5071593;28;20280;-71
2022/04/29 04:06:49;;;;;;;25.58;11.65;;;;;;;;;;5071440;28;20506;-71
2022/04/29 04:09:15;;;;;;;25.08;11.45;;;;;;;;;;5070765;28;20036;-71
2022/04/29 04:11:41;;;;;;;23.10;11.77;;;;;;;;;;5070786;28;20036;-71
2022/04/29 04:14:06;;;;;;;28.42;12.80;;;;;;;;;;5070516;28;20440;-71
2022/04/29 04:16:32;;;;;;;28.55;12.05;;;;;;;;;;5052526;28;20013;-71
2022/04/29 04:18:57;;;;;;;24.57;12.50;;;;;;;;;;5069868;28;20107;-69
2022/04/29 04:21:22;;;;;;;27.33;12.20;;;;;;;;;;5071002;28;20364;-71
2022/04/29 04:23:47;;;;;;;26.23;11.45;;;;;;;;;;5070892;28;20431;-71
2022/04/29 04:26:13;;;;;;;31.55;13.95;;;;;;;;;;5070466;28;20098;-71
2022/04/29 04:28:38;;;;;;;28.73;14.55;;;;;;;;;;5072006;28;20477;-68
2022/04/29 04:31:03;;;;;;;21.80;11.73;;;;;;;;;;5069179;28;20108;-69
2022/04/29 04:33:28;;;;;;;23.85;11.68;;;;;;;;;;5070439;28;20024;-68
2022/04/29 04:35:53;;;;;;;30.10;14.10;;;;;;;;;;5070603;28;20037;-69
2022/04/29 04:38:19;;;;;;;39.27;13.43;;;;;;;;;;5072598;28;20009;-69
2022/04/29 04:40:44;;;;;;;24.25;12.23;;;;;;;;;;5067700;28;20298;-69
2022/04/29 04:43:09;;;;;;;18.88;11.40;;;;;;;;;;5072331;28;20463;-71
2022/04/29 04:45:34;;;;;;;24.10;11.10;;;;;;;;;;5068914;28;20013;-68
2022/04/29 04:47:59;;;;;;;26.33;12.20;;;;;;;;;;5069122;28;20044;-69
2022/04/29 04:50:24;;;;;;;31.33;13.77;;;;;;;;;;5068006;28;20643;-69
2022/04/29 04:52:50;;;;;;;24.87;11.83;;;;;;;;;;5070219;28;20421;-69
2022/04/29 04:55:15;;;;;;;28.83;11.88;;;;;;;;;;5070137;28;20282;-68
2022/04/29 04:57:40;;;;;;;24.27;11.85;;;;;;;;;;5069622;28;20027;-68
2022/04/29 05:00:06;;;;;;;21.58;12.00;;;;;;;;;;5065917;28;20327;-68
2022/04/29 05:02:31;;;;;;;21.83;11.73;;;;;;;;;;5070593;28;20504;-70
2022/04/29 05:04:57;;;;;;;26.88;12.60;;;;;;;;;;5069103;28;20070;-70
2022/04/29 05:07:22;;;;;;;31.00;11.57;;;;;;;;;;5071351;28;20471;-69
2022/04/29 05:09:47;;;;;;;24.77;12.35;;;;;;;;;;5070503;28;20021;-71
2022/04/29 05:12:14;;;;;;;26.90;12.07;;;;;;;;;;5069195;28;20028;-69
2022/04/29 05:14:39;;;;;;;24.45;11.70;;;;;;;;;;5070520;28;20266;-68
2022/04/29 05:17:04;;;;;;;22.77;11.50;;;;;;;;;;5069538;28;20024;-71
2022/04/29 05:19:29;;;;;;;25.30;11.90;;;;;;;;;;5052590;28;20397;-69
2022/04/29 05:21:54;;;;;;;29.93;12.90;;;;;;;;;;5068849;28;20055;-71
2022/04/29 05:24:20;;;;;;;37.40;12.13;;;;;;;;;;5069424;28;20283;-69
2022/04/29 05:26:45;;;;;;;33.60;12.20;;;;;;;;;;5070088;28;20302;-69
2022/04/29 05:29:10;;;;;;;28.60;12.20;;;;;;;;;;5069247;28;20044;-68
2022/04/29 05:31:35;;;;;;;20.73;10.95;;;;;;;;;;5069404;28;20290;-68
2022/04/29 05:34:03;;;;;;;24.08;10.63;;;;;;;;;;5068330;28;20020;-69
2022/04/29 05:36:28;;;;;;;24.33;11.90;;;;;;;;;;5066407;28;20040;-68
2022/04/29 05:42:15;;;;;;;28.40;12.27;;;;;;;;;;5006233;28;20037;-70
2022/04/29 05:44:41;;;;;;;23.77;11.20;;;;;;;;;;5011062;28;20087;-68
2022/04/29 05:47:06;;;;;;;24.10;10.85;;;;;;;;;;5041412;28;20025;-71
2022/04/29 05:49:31;;;;;;;21.55;11.93;;;;;;;;;;5066520;28;20543;-70
2022/04/29 05:52:03;;;;;;;25.52;11.48;;;;;;;;;;5068913;28;20019;-69
2022/04/29 05:54:29;;;;;;;30.15;11.88;;;;;;;;;;5067199;28;20096;-69
2022/04/29 05:56:54;;;;;;;25.00;12.15;;;;;;;;;;5064619;28;20095;-68
2022/04/29 05:59:19;;;;;;;21.52;11.77;;;;;;;;;;5067253;28;20032;-66
2022/04/29 06:01:45;;;;;;;26.50;11.57;;;;;;;;;;5069458;28;20049;-68
2022/04/29 06:04:10;;;;;;;30.10;11.57;;;;;;;;;;5068189;28;20324;-71
2022/04/29 06:06:35;;;;;;;28.50;11.98;;;;;;;;;;5066352;28;20482;-68
2022/04/29 06:09:00;;;;;;;22.88;11.20;;;;;;;;;;5050090;28;20039;-69
2022/04/29 06:11:25;;;;;;;23.58;11.55;;;;;;;;;;5069321;28;20027;-68
2022/04/29 06:13:51;;;;;;;28.48;12.43;;;;;;;;;;5068030;28;20023;-70
2022/04/29 06:16:17;;;;;;;25.52;10.77;;;;;;;;;;5063013;28;20081;-68
2022/04/29 06:18:42;;;;;;;28.58;12.63;;;;;;;;;;5067544;28;20032;-68
2022/04/29 06:21:07;;;;;;;24.67;12.48;;;;;;;;;;5067719;28;20054;-68
2022/04/29 06:23:32;;;;;;;32.80;13.20;;;;;;;;;;5067546;28;20386;-69
2022/04/29 06:25:58;;;;;;;29.65;13.43;;;;;;;;;;5068706;28;20278;-69
2022/04/29 06:28:23;;;;;;;33.63;14.40;;;;;;;;;;5055125;28;20028;-69
2022/04/29 06:30:49;;;;;;;22.90;12.05;;;;;;;;;;5067595;28;20028;-68
2022/04/29 06:33:14;;;;;;;26.65;11.82;;;;;;;;;;5069173;28;20048;-68
2022/04/29 06:35:42;;;;;;;23.65;12.68;;;;;;;;;;5068315;28;20020;-71
2022/04/29 06:38:08;;;;;;;28.90;12.73;;;;;;;;;;5068886;28;20009;-68
2022/04/29 06:40:33;;;;;;;28.90;12.38;;;;;;;;;;5067252;28;20431;-68
2022/04/29 06:42:58;;;;;;;31.83;13.63;;;;;;;;;;5067439;28;20055;-68
2022/04/29 06:45:23;;;;;;;27.75;13.50;;;;;;;;;;5067840;28;20023;-69
2022/04/29 06:47:48;;;;;;;23.65;11.60;;;;;;;;;;5067309;28;20366;-68
2022/04/29 06:50:14;;;;;;;26.10;11.97;;;;;;;;;;5068771;28;20078;-69
2022/04/29 06:52:39;;;;;;;22.63;12.30;;;;;;;;;;5068091;28;20287;-68
2022/04/29 06:55:04;;;;;;;28.45;12.25;;;;;;;;;;5067028;28;20099;-68
2022/04/29 06:57:30;;;;;;;24.00;12.50;;;;;;;;;;5067709;28;20024;-70
2022/04/29 06:59:56;;;;;;;27.65;11.55;;;;;;;;;;5068874;28;20026;-69
2022/04/29 07:02:21;;;;;;;24.60;11.88;;;;;;;;;;5069521;28;20119;-68
2022/04/29 07:04:46;;;;;;;28.23;12.20;;;;;;;;;;5069457;28;20496;-70
2022/04/29 07:07:11;;;;;;;24.30;11.50;;;;;;;;;;5071915;28;20032;-69
2022/04/29 07:09:38;;;;;;;28.33;12.05;;;;;;;;;;5066495;28;20377;-70
2022/04/29 07:12:04;;;;;;;23.20;11.00;;;;;;;;;;5053155;28;20048;-68
2022/04/29 07:14:29;;;;;;;25.02;12.23;;;;;;;;;;5069127;28;20444;-68
2022/04/29 07:16:55;;;;;;;24.60;10.63;;;;;;;;;;5072045;28;20021;-67
2022/04/29 07:19:20;;;;;;;20.90;11.77;;;;;;;;;;5066477;28;20277;-67
2022/04/29 07:21:45;;;;;;;23.27;11.07;;;;;;;;;;5071825;28;20092;-67
2022/04/29 07:24:12;;;;;;;21.58;12.48;;;;;;;;;;5069614;28;20275;-67
2022/04/29 07:26:39;;;;;;;25.80;11.68;;;;;;;;;;5065374;28;20031;-71
2022/04/29 07:29:04;;;;;;;20.67;11.32;;;;;;;;;;5062770;28;20065;-68
2022/04/29 07:31:30;;;;;;;21.17;9.60;;;;;;;;;;5074043;28;20024;-68
2022/04/29 07:33:55;;;;;;;21.95;10.75;;;;;;;;;;5072819;28;20020;-68
2022/04/29 07:41:48;;;;;;;21.48;10.68;;;;;;;;;;5069106;28;20434;-69
2022/04/29 07:44:14;;;;;;;27.95;12.05;;;;;;;;;;5064508;28;20111;-71
2022/04/29 07:46:43;;;;;;;21.95;11.40;;;;;;;;;;5072189;28;20017;-71
2022/04/29 07:49:09;;;;;;;22.13;10.90;;;;;;;;;;5068629;28;20038;-68
2022/04/29 07:51:34;;;;;;;23.25;10.05;;;;;;;;;;5068475;28;20050;-71
2022/04/29 07:53:59;;;;;;;19.77;10.65;;;;;;;;;;5072030;28;20415;-68
2022/04/29 07:56:24;;;;;;;26.90;11.02;;;;;;;;;;5071867;28;20024;-70
2022/04/29 07:58:49;;;;;;;22.80;10.70;;;;;;;;;;5071487;28;20608;-69
2022/04/29 08:01:15;;;;;;;21.38;11.70;;;;;;;;;;5070615;28;20287;-68
2022/04/29 08:03:41;;;;;;;23.95;9.98;;;;;;;;;;5069490;28;20028;-68
2022/04/29 08:06:06;;;;;;;21.52;9.60;;;;;;;;;;5070260;28;20021;-68
2022/04/29 08:08:32;;;;;;;27.83;10.85;;;;;;;;;;5068031;28;20066;-68
2022/04/29 08:10:58;;;;;;;20.83;9.90;;;;;;;;;;5069353;28;20025;-68
2022/04/29 08:13:24;;;;;;;18.10;9.60;;;;;;;;;;5069379;28;20019;-69
2022/04/29 08:15:49;;;;;;;24.95;10.32;;;;;;;;;;5069333;28;20695;-69
2022/04/29 08:18:14;;;;;;;20.95;9.40;;;;;;;;;;5067889;28;20546;-69
2022/04/29 08:20:40;;;;;;;22.08;10.00;;;;;;;;;;5075605;28;20438;-71
2022/04/29 08:23:05;;;;;;;18.42;9.80;;;;;;;;;;5068926;28;20012;-69
2022/04/29 08:25:31;;;;;;;20.10;9.87;;;;;;;;;;5068707;28;20062;-71
2022/04/29 08:27:56;;;;;;;20.13;10.65;;;;;;;;;;5069976;28;20310;-71
2022/04/29 08:30:22;;;;;;;19.65;10.43;;;;;;;;;;5070273;28;20012;-69
2022/04/29 08:32:50;;;;;;;23.20;10.27;;;;;;;;;;5068037;28;20020;-69
2022/04/29 08:35:15;;;;;;;26.13;10.30;;;;;;;;;;5069169;28;20321;-71
2022/04/29 08:37:41;;;;;;;24.08;10.50;;;;;;;;;;5069765;28;20048;-69
2022/04/29 08:40:07;;;;;;;19.85;9.18;;;;;;;;;;5068199;28;20073;-69
2022/04/29 08:42:37;;;;;;;18.02;10.27;;;;;;;;;;5070175;28;20070;-69
2022/04/29 08:45:05;;;;;;;24.20;10.00;;;;;;;;;;5066419;28;20382;-69
2022/04/29 08:47:31;;;;;;;26.23;10.15;;;;;;;;;;5066481;28;20033;-70
2022/04/29 08:49:56;;;;;;;18.10;9.70;;;;;;;;;;5071089;28;20031;-71
2022/04/29 08:52:22;;;;;;;29.58;11.23;;;;;;;;;;5069313;28;20079;-69
2022/04/29 09:00:21;;;;;;;18.95;9.10;;;;;;;;;;5069832;28;20507;-70
2022/04/29 09:02:46;;;;;;;23.87;8.87;;;;;;;;;;5071629;28;20024;-68
2022/04/29 09:05:11;;;;;;;24.53;9.53;;;;;;;;;;5070465;28;20294;-71
2022/04/29 09:07:52;;;;;;;20.75;9.32;;;;;;;;;;5069763;28;20674;-68
2022/04/29 09:10:18;;;;;;;23.95;10.65;;;;;;;;;;5069671;28;20103;-69
2022/04/29 09:12:43;;;;;;;20.93;10.53;;;;;;;;;;5070520;28;20131;-69
2022/04/29 09:15:12;;;;;;;23.97;10.73;;;;;;;;;;5057664;28;20658;-70
2022/04/29 09:17:40;;;;;;;23.25;8.77;;;;;;;;;;5053324;28;20747;-69
2022/04/29 09:20:19;;;;;;;22.45;10.45;;;;;;;;;;5068775;28;20075;-69
2022/04/29 09:22:49;;;;;;;24.73;9.43;;;;;;;;;;5066963;28;20084;-70
2022/04/29 09:25:15;;;;;;;27.03;9.63;;;;;;;;;;5069038;28;20026;-71
2022/04/29 09:27:53;;;;;;;21.50;10.95;;;;;;;;;;5065658;28;20025;-69
2022/04/29 09:30:30;;;;;;;34.47;13.20;;;;;;;;;;5068656;28;20469;-69
2022/04/29 09:32:56;;;;;;;30.52;13.07;;;;;;;;;;5067107;28;20024;-70
2022/04/29 09:35:37;;;;;;;41.63;14.37;;;;;;;;;;5069562;28;20017;-69
2022/04/29 09:40:47;;;;;;;35.67;13.93;;;;;;;;;;5066668;28;20427;-68
2022/04/29 09:43:12;;;;;;;34.00;14.95;;;;;;;;;;5051297;28;20020;-69
2022/04/29 09:45:37;;;;;;;32.50;15.83;;;;;;;;;;5068091;28;20031;-69
2022/04/29 09:48:07;;;;;;;38.00;15.77;;;;;;;;;;5068851;28;20267;-71
2022/04/29 09:50:46;;;;;;;33.08;14.68;;;;;;;;;;5066085;28;20278;-71
2022/04/29 09:53:18;;;;;;;27.17;13.88;;;;;;;;;;5068519;28;20016;-70
2022/04/29 09:56:03;;;;;;;38.00;14.88;;;;;;;;;;5066476;28;20126;-71
2022/04/29 09:58:28;;;;;;;29.30;14.60;;;;;;;;;;5068233;28;20137;-72
2022/04/29 10:00:54;;;;;;;28.98;14.07;;;;;;;;;;5066439;28;20033;-70
2022/04/29 10:03:19;;;;;;;40.90;15.40;;;;;;;;;;5072552;28;20044;-71
2022/04/29 10:05:44;;;;;;;38.47;16.75;;;;;;;;;;5065209;28;20271;-69
2022/04/29 10:08:09;;;;;;;35.63;16.25;;;;;;;;;;5067526;28;20385;-70
2022/04/29 10:10:35;;;;;;;30.45;16.70;;;;;;;;;;5065121;28;20169;-70
2022/04/29 10:13:01;;;;;;;30.92;15.60;;;;;;;;;;5061247;28;20495;-72
2022/04/29 10:15:26;;;;;;;31.27;17.02;;;;;;;;;;5056371;28;20111;-70
2022/04/29 10:23:22;;;;;;;34.10;15.75;;;;;;;;;;5067499;28;20061;-70
2022/04/29 10:25:47;;;;;;;34.80;18.35;;;;;;;;;;5060633;28;20032;-69
2022/04/29 10:30:40;;;;;;;39.70;18.35;;;;;;;;;;5018832;28;20107;-68
2022/04/29 10:33:06;;;;;;;35.88;17.92;;;;;;;;;;5025352;28;20017;-67
2022/04/29 10:35:47;;;;;;;33.80;17.60;;;;;;;;;;5021615;28;20037;-67
2022/04/29 10:38:12;;;;;;;;;;;;;;;;;;5025862;28;20096;-67
2022/04/29 10:40:37;;;;;;;38.50;17.23;;;;;;;;;;5018979;28;19992;-67
2022/04/29 10:43:04;;;;;;;36.97;17.40;;;;;;;;;;5027070;28;20116;-67
2022/04/29 10:45:29;;;;;;;35.25;16.30;;;;;;;;;;5019287;28;21407;-67
2022/04/29 10:47:54;;;;;;;38.50;16.23;;;;;;;;;;5023061;28;20018;-67
2022/04/29 10:50:29;;;;;;;38.10;17.95;;;;;;;;;;5022992;28;20025;-67
2022/04/29 10:53:04;;;;;;;38.30;17.40;;;;;;;;;;5027396;28;20027;-67
2022/04/29 10:55:29;;;;;;;35.22;17.60;;;;;;;;;;5020623;28;20025;-67
2022/04/29 10:58:02;;;;;;;39.42;16.17;;;;;;;;;;5014256;28;20393;-65
2022/04/29 11:00:28;;;;;;;36.08;16.23;;;;;;;;;;5017979;28;20056;-65
2022/04/29 11:02:53;;;;;;;30.27;15.48;;;;;;;;;;5019788;28;20490;-67
2022/04/29 11:05:37;;;;;;;29.20;15.02;;;;;;;;;;5024865;28;20021;-68
2022/04/29 11:08:09;;;;;;;35.05;15.48;;;;;;;;;;5022281;28;20060;-68
2022/04/29 11:10:53;;;;;;;34.42;15.88;;;;;;;;;;5025541;28;20048;-68
2022/04/29 11:13:21;;;;;;;30.63;16.05;;;;;;;;;;5030807;28;20420;-67
2022/04/29 11:15:46;;;;;;;32.28;15.02;;;;;;;;;;5029819;28;20017;-68
2022/04/29 11:18:25;;;;;;;36.80;14.65;;;;;;;;;;5028042;28;20386;-68
2022/04/29 11:20:57;;;;;;;32.75;13.55;;;;;;;;;;5031380;28;20021;-67
2022/04/29 11:26:14;;;;;;;32.22;13.82;;;;;;;;;;5028074;28;20063;-68
2022/04/29 11:28:40;;;;;;;24.55;13.32;;;;;;;;;;5032905;28;20053;-67
2022/04/29 11:31:06;;;;;;;30.23;12.30;;;;;;;;;;5021317;28;20045;-65
2022/04/29 11:33:31;;;;;;;26.55;13.43;;;;;;;;;;5036591;28;20025;-66
2022/04/29 11:36:15;;;;;;;24.58;12.32;;;;;;;;;;5034942;28;20091;-65
2022/04/29 11:38:47;;;;;;;27.75;14.85;;;;;;;;;;5031773;28;20013;-68
2022/04/29 11:41:19;;;;;;;28.58;12.23;;;;;;;;;;5034640;28;20418;-68
2022/04/29 11:43:48;;;;;;;24.20;12.35;;;;;;;;;;5030182;28;20025;-68
2022/04/29 11:46:15;;;;;;;27.60;11.40;;;;;;;;;;5020497;28;20029;-68
2022/04/29 11:48:49;;;;;;;24.92;12.75;;;;;;;;;;5035952;28;20017;-68
2022/04/29 11:51:14;;;;;;;23.42;11.43;;;;;;;;;;5036594;28;20060;-65
2022/04/29 11:54:12;;;;;;;30.00;12.63;;;;;;;;;;5033305;28;20482;-68
2022/04/29 11:56:37;;;;;;;28.05;11.50;;;;;;;;;;4997476;28;20280;-65
2022/04/29 11:59:04;;;;;;;24.23;11.45;;;;;;;;;;5029485;28;20013;-67
2022/04/29 12:01:30;;;;;;;24.02;11.77;;;;;;;;;;5035824;28;20029;-65
2022/04/29 12:03:55;;;;;;;24.33;12.15;;;;;;;;;;5038190;28;20043;-65
2022/04/29 12:06:20;;;;;;;26.20;12.65;;;;;;;;;;5039231;28;20025;-66
2022/04/29 12:08:45;;;;;;;19.03;10.57;;;;;;;;;;5032251;28;20017;-65
2022/04/29 12:11:11;;;;;;;27.38;10.73;;;;;;;;;;5031903;28;20287;-66
2022/04/29 12:13:36;;;;;;;28.52;12.18;;;;;;;;;;5033745;28;20021;-68
2022/04/29 12:16:02;;;;;;;21.08;11.50;;;;;;;;;;5034644;28;20017;-66
2022/04/29 12:18:43;;;;;;;24.30;11.38;;;;;;;;;;5037895;28;20724;-66
2022/04/29 12:21:09;;;;;;;32.50;11.50;;;;;;;;;;5023667;28;20060;-67
2022/04/29 12:23:34;;;;;;;23.15;10.25;;;;;;;;;;5023523;28;20025;-66
2022/04/29 12:26:01;;;;;;;19.15;11.25;;;;;;;;;;5035976;28;20071;-67
2022/04/29 12:28:27;;;;;;;21.88;11.30;;;;;;;;;;5038899;28;20130;-66
2022/04/29 12:36:46;;;;;;;21.50;11.25;;;;;;;;;;5039243;28;20043;-66
2022/04/29 12:39:12;;;;;;;23.92;10.70;;;;;;;;;;5037340;28;20013;-67
2022/04/29 12:41:37;;;;;;;22.05;10.20;;;;;;;;;;5034893;28;20032;-66
2022/04/29 12:44:06;;;;;;;33.10;12.03;;;;;;;;;;5033326;28;20100;-67
2022/04/29 12:46:32;;;;;;;24.95;11.65;;;;;;;;;;5032531;28;20272;-67
2022/04/29 12:48:57;;;;;;;22.45;10.43;;;;;;;;;;5032018;28;20021;-66
2022/04/29 12:51:27;;;;;;;20.50;10.95;;;;;;;;;;5033108;28;20025;-66
2022/04/29 12:53:53;;;;;;;23.42;10.50;;;;;;;;;;5033299;28;20428;-67
2022/04/29 12:56:24;;;;;;;19.17;10.18;;;;;;;;;;5038406;28;20020;-67
2022/04/29 12:58:49;;;;;;;25.48;10.70;;;;;;;;;;5033871;28;20032;-67
2022/04/29 13:01:15;;;;;;;22.13;10.80;;;;;;;;;;5020492;28;20025;-67
2022/04/29 13:03:40;;;;;;;19.98;10.00;;;;;;;;;;5023495;28;20025;-67
2022/04/29 13:06:07;;;;;;;28.75;11.70;;;;;;;;;;5026855;28;20695;-67
2022/04/29 13:08:32;;;;;;;30.15;10.73;;;;;;;;;;5023053;28;20385;-67
2022/04/29 13:10:58;;;;;;;25.95;10.45;;;;;;;;;;5026021;28;20024;-67
2022/04/29 13:13:24;;;;;;;24.02;10.63;;;;;;;;;;5020451;28;20045;-67
2022/04/29 13:15:50;;;;;;;25.80;11.98;;;;;;;;;;5024549;28;20500;-67
2022/04/29 13:18:16;;;;;;;26.88;11.82;;;;;;;;;;5025946;28;20060;-66
2022/04/29 13:20:42;;;;;;;25.10;11.05;;;;;;;;;;5023031;28;20037;-66
2022/04/29 13:23:07;;;;;;;26.65;11.02;;;;;;;;;;5024386;28;20381;-66
2022/04/29 13:25:36;;;;;;;28.02;11.27;;;;;;;;;;5026798;28;20029;-67
2022/04/29 13:28:01;;;;;;;24.50;10.90;;;;;;;;;;5036825;28;20025;-67
2022/04/29 13:30:26;;;;;;;22.55;10.93;;;;;;;;;;5038920;28;20389;-67
2022/04/29 13:32:52;;;;;;;26.33;11.65;;;;;;;;;;5031673;28;20072;-67
2022/04/29 13:35:17;;;;;;;20.50;11.13;;;;;;;;;;5027316;28;20044;-68
2022/04/29 13:37:43;;;;;;;29.65;12.13;;;;;;;;;;5042038;28;20025;-67
2022/04/29 13:40:08;;;;;;;32.95;11.50;;;;;;;;;;5031307;28;20055;-68
2022/04/29 13:42:34;;;;;;;30.35;12.10;;;;;;;;;;5038791;28;20393;-68
2022/04/29 13:45:01;;;;;;;27.50;11.35;;;;;;;;;;5040363;28;20031;-66
2022/04/29 13:47:27;;;;;;;22.63;10.52;;;;;;;;;;5029751;28;20018;-66
2022/04/29 13:49:52;;;;;;;24.33;10.90;;;;;;;;;;5027421;28;20080;-66
2022/04/29 13:55:01;;;;;;;23.60;11.07;;;;;;;;;;5029888;28;20036;-67
2022/04/29 13:57:26;;;;;;;32.92;12.52;;;;;;;;;;5039908;28;20018;-66
2022/04/29 13:59:52;;;;;;;26.73;12.30;;;;;;;;;;5030900;28;20045;-67
2022/04/29 14:02:17;;;;;;;29.90;12.50;;;;;;;;;;5024823;28;20025;-67
2022/04/29 14:04:42;;;;;;;27.57;13.23;;;;;;;;;;5022070;28;20479;-68
2022/04/29 14:07:07;;;;;;;27.70;12.57;;;;;;;;;;5021230;28;20300;-67
2022/04/29 14:09:33;;;;;;;30.25;12.13;;;;;;;;;;5033574;28;20466;-67
2022/04/29 14:11:58;;;;;;;19.03;11.90;;;;;;;;;;5033084;28;20022;-67
2022/04/29 14:14:23;;;;;;;26.05;10.98;;;;;;;;;;5030092;28;20837;-65
2022/04/29 14:16:51;;;;;;;25.75;12.13;;;;;;;;;;5028604;28;20505;-66
2022/04/29 14:19:16;;;;;;;27.35;12.00;;;;;;;;;;5038311;28;20052;-66
2022/04/29 14:21:42;;;;;;;25.80;11.50;;;;;;;;;;5027095;28;20053;-66
2022/04/29 14:24:07;;;;;;;31.48;11.95;;;;;;;;;;5022136;28;20021;-68
2022/04/29 14:26:33;;;;;;;23.17;10.80;;;;;;;;;;5027942;28;20493;-67
2022/04/29 14:28:59;;;;;;;24.73;11.13;;;;;;;;;;5030478;28;20041;-67
2022/04/29 14:31:24;;;;;;;22.55;9.70;;;;;;;;;;5029485;28;20013;-67
2022/04/29 14:33:49;;;;;;;25.52;10.88;;;;;;;;;;5030630;28;20381;-67
2022/04/29 14:36:14;;;;;;;28.30;11.85;;;;;;;;;;5010848;28;20028;-67
2022/04/29 14:38:40;;;;;;;25.90;11.60;;;;;;;;;;5031949;28;20022;-67
2022/04/29 14:41:05;;;;;;;28.80;10.57;;;;;;;;;;5032536;28;20278;-67
2022/04/29 14:43:30;;;;;;;22.20;10.35;;;;;;;;;;5035409;28;20705;-67
2022/04/29 14:45:55;;;;;;;25.37;11.20;;;;;;;;;;5027725;28;20117;-65
2022/04/29 14:48:20;;;;;;;23.77;10.40;;;;;;;;;;5035283;28;20668;-64
2022/04/29 14:50:46;;;;;;;17.95;10.55;;;;;;;;;;5034685;28;20298;-67
2022/04/29 14:53:11;;;;;;;23.80;9.38;;;;;;;;;;5033164;28;20021;-65